createdAt,value
2023-01-23T00:01:20.244Z,2.00
2023-01-23T00:03:47.373Z,2.00
2023-01-23T00:06:16.128Z,2.00
2023-01-23T00:08:45.262Z,2.00
2023-01-23T00:11:15.471Z,2.00
2023-01-23T00:13:42.650Z,2.00
2023-01-23T00:16:15.706Z,2.00
2023-01-23T00:18:42.688Z,2.00
2023-01-23T00:21:12.292Z,1.90
2023-01-23T00:23:45.223Z,2.00
2023-01-23T00:26:18.749Z,1.90
2023-01-23T00:28:47.381Z,2.00
2023-01-23T00:31:20.567Z,2.00
2023-01-23T00:33:54.463Z,2.00
2023-01-23T00:36:22.826Z,2.00
2023-01-23T00:38:49.787Z,2.00
2023-01-23T00:41:16.669Z,2.00
2023-01-23T00:43:43.739Z,2.00
2023-01-23T00:46:10.827Z,2.00
2023-01-23T00:48:39.695Z,2.00
2023-01-23T00:51:06.684Z,2.00
2023-01-23T00:53:33.635Z,2.00
2023-01-23T00:56:00.663Z,2.00
2023-01-23T00:58:27.564Z,2.00
2023-01-23T01:00:54.583Z,1.90
2023-01-23T01:03:21.639Z,2.00
2023-01-23T01:05:51.212Z,2.00
2023-01-23T01:08:18.587Z,1.90
2023-01-23T01:10:45.637Z,2.00
2023-01-23T01:13:12.793Z,2.60
2023-01-23T01:15:40.033Z,2.00
2023-01-23T01:18:07.050Z,2.00
2023-01-23T01:20:34.289Z,2.00
2023-01-23T01:23:01.244Z,1.90
2023-01-23T01:25:28.216Z,2.00
2023-01-23T01:27:56.225Z,1.90
2023-01-23T01:30:27.214Z,1.90
2023-01-23T01:32:55.194Z,1.90
2023-01-23T01:35:22.794Z,1.90
2023-01-23T01:37:50.887Z,1.90
2023-01-23T01:40:22.004Z,1.90
2023-01-23T01:43:03.499Z,1.90
2023-01-23T01:46:08.671Z,1.90
2023-01-23T01:48:44.267Z,1.90
2023-01-23T01:51:15.943Z,1.90
2023-01-23T01:53:46.773Z,1.90
2023-01-23T01:56:15.164Z,1.90
2023-01-23T01:58:45.943Z,1.90
2023-01-23T02:01:13.698Z,1.90
2023-01-23T02:03:40.808Z,1.90
2023-01-23T02:06:08.142Z,1.90
2023-01-23T02:08:51.683Z,1.90
2023-01-23T02:11:18.720Z,1.90
2023-01-23T02:13:46.076Z,1.90
2023-01-23T02:16:25.033Z,1.90
2023-01-23T02:18:55.145Z,1.90
2023-01-23T02:21:25.482Z,1.90
2023-01-23T02:24:11.982Z,1.90
2023-01-23T02:26:42.030Z,1.90
2023-01-23T02:29:10.094Z,1.90
2023-01-23T02:31:52.945Z,1.90
2023-01-23T02:34:22.795Z,1.90
2023-01-23T02:36:50.731Z,1.90
2023-01-23T02:39:22.682Z,1.90
2023-01-23T02:41:54.372Z,1.90
2023-01-23T02:44:29.770Z,1.90
2023-01-23T02:47:05.013Z,1.90
2023-01-23T02:49:32.537Z,1.90
2023-01-23T02:51:59.835Z,2.00
2023-01-23T02:54:26.883Z,2.00
2023-01-23T02:56:53.990Z,2.00
2023-01-23T02:59:41.321Z,2.00
2023-01-23T03:02:09.435Z,2.00
2023-01-23T03:04:36.556Z,2.00
2023-01-23T03:07:03.852Z,2.00
2023-01-23T03:09:30.805Z,2.00
2023-01-23T03:11:57.747Z,2.00
2023-01-23T03:14:25.675Z,2.00
2023-01-23T03:16:54.134Z,2.00
2023-01-23T03:19:25.259Z,2.00
2023-01-23T03:21:53.002Z,2.00
2023-01-23T03:24:20.727Z,2.00
2023-01-23T03:26:49.137Z,2.00
2023-01-23T03:29:42.224Z,2.00
2023-01-23T03:32:11.936Z,2.00
2023-01-23T03:34:41.475Z,2.00
2023-01-23T03:37:09.996Z,2.10
2023-01-23T03:39:56.596Z,2.00
2023-01-23T03:42:24.852Z,2.00
2023-01-23T03:44:53.623Z,2.00
2023-01-23T03:47:26.313Z,2.10
2023-01-23T03:49:55.169Z,2.00
2023-01-23T03:52:22.462Z,2.10
2023-01-23T03:54:49.791Z,2.10
2023-01-23T03:57:16.805Z,2.10
2023-01-23T04:00:04.971Z,2.10
2023-01-23T04:02:41.431Z,2.10
2023-01-23T04:05:10.960Z,2.10
2023-01-23T04:07:38.927Z,2.10
2023-01-23T04:10:06.143Z,2.10
2023-01-23T04:12:33.056Z,2.10
2023-01-23T04:15:00.289Z,2.10
2023-01-23T04:17:27.652Z,2.10
2023-01-23T04:19:54.660Z,2.10
2023-01-23T04:22:21.615Z,2.10
2023-01-23T04:24:50.544Z,2.10
2023-01-23T04:27:17.647Z,2.10
2023-01-23T04:29:44.650Z,2.10
2023-01-23T04:32:11.850Z,2.10
2023-01-23T04:34:44.802Z,2.10
2023-01-23T04:37:11.850Z,2.10
2023-01-23T04:39:39.673Z,2.10
2023-01-23T04:42:06.595Z,2.10
2023-01-23T04:45:01.593Z,2.10
2023-01-23T04:48:03.235Z,2.10
2023-01-23T04:50:30.222Z,2.20
2023-01-23T04:52:58.339Z,2.20
2023-01-23T04:55:26.099Z,2.20
2023-01-23T04:57:53.056Z,2.20
2023-01-23T05:00:24.410Z,2.20
2023-01-23T05:02:51.912Z,2.20
2023-01-23T05:05:21.232Z,2.20
2023-01-23T05:07:51.574Z,2.20
2023-01-23T05:10:19.521Z,2.20
2023-01-23T05:12:47.898Z,2.10
2023-01-23T05:15:15.278Z,2.20
2023-01-23T05:17:44.343Z,2.10
2023-01-23T05:20:11.904Z,2.10
2023-01-23T05:22:52.438Z,2.10
2023-01-23T05:25:24.673Z,2.10
2023-01-23T05:27:53.026Z,2.10
2023-01-23T05:30:22.840Z,2.10
2023-01-23T05:32:52.874Z,2.10
2023-01-23T05:35:21.672Z,2.10
2023-01-23T05:37:50.586Z,2.10
2023-01-23T05:40:22.084Z,2.10
2023-01-23T05:43:15.237Z,2.10
2023-01-23T05:46:01.056Z,2.10
2023-01-23T05:48:37.453Z,2.10
2023-01-23T05:51:09.283Z,2.10
2023-01-23T05:53:36.382Z,2.20
2023-01-23T05:56:08.212Z,2.20
2023-01-23T05:58:42.844Z,2.20
2023-01-23T06:01:25.466Z,2.20
2023-01-23T06:04:10.780Z,2.20
2023-01-23T06:06:57.982Z,2.20
2023-01-23T06:09:24.974Z,2.20
2023-01-23T06:11:51.977Z,2.20
2023-01-23T06:14:18.983Z,2.20
2023-01-23T06:16:46.402Z,2.20
2023-01-23T06:19:13.587Z,2.20
2023-01-23T06:21:40.809Z,2.20
2023-01-23T06:24:08.083Z,2.20
2023-01-23T06:26:34.953Z,2.20
2023-01-23T06:29:01.899Z,2.20
2023-01-23T06:31:32.369Z,2.10
2023-01-23T06:34:02.636Z,2.10
2023-01-23T06:36:36.191Z,2.20
2023-01-23T06:39:03.953Z,2.20
2023-01-23T06:41:37.366Z,2.20
2023-01-23T06:44:07.739Z,2.20
2023-01-23T06:46:35.817Z,2.20
2023-01-23T06:49:06.311Z,2.20
2023-01-23T06:51:36.753Z,2.20
2023-01-23T06:54:06.291Z,2.20
2023-01-23T06:56:33.494Z,2.20
2023-01-23T06:59:03.794Z,2.20
2023-01-23T07:01:33.013Z,2.20
2023-01-23T07:04:22.616Z,2.20
2023-01-23T07:06:51.184Z,2.20
2023-01-23T07:09:19.597Z,2.20
2023-01-23T07:11:58.352Z,2.20
2023-01-23T07:14:27.189Z,2.20
2023-01-23T07:16:55.626Z,2.30
2023-01-23T07:19:22.825Z,2.30
2023-01-23T07:21:49.797Z,2.20
2023-01-23T07:24:17.043Z,2.30
2023-01-23T07:26:44.078Z,2.30
2023-01-23T07:29:11.275Z,2.20
2023-01-23T07:31:38.235Z,2.30
2023-01-23T07:34:05.222Z,2.30
2023-01-23T07:36:33.327Z,2.30
2023-01-23T07:39:00.277Z,2.30
2023-01-23T07:41:27.206Z,2.30
2023-01-23T07:43:54.145Z,2.30
2023-01-23T07:46:21.344Z,2.30
2023-01-23T07:48:48.607Z,2.30
2023-01-23T07:51:15.629Z,2.30
2023-01-23T07:53:42.601Z,2.30
2023-01-23T07:56:09.577Z,2.30
2023-01-23T07:58:36.530Z,2.30
2023-01-23T08:01:10.938Z,2.30
2023-01-23T08:03:38.050Z,2.30
2023-01-23T08:06:05.081Z,2.30
2023-01-23T08:08:32.051Z,2.30
2023-01-23T08:10:59.012Z,2.40
2023-01-23T08:13:25.915Z,2.30
2023-01-23T08:15:53.552Z,2.40
2023-01-23T08:18:20.521Z,2.40
2023-01-23T08:20:54.223Z,2.40
2023-01-23T08:23:21.450Z,2.40
2023-01-23T08:25:53.621Z,2.40
2023-01-23T08:28:21.287Z,2.40
2023-01-23T08:30:48.903Z,2.30
2023-01-23T08:33:16.362Z,2.50
2023-01-23T08:35:54.834Z,2.50
2023-01-23T08:38:23.221Z,2.50
2023-01-23T08:40:52.089Z,2.50
2023-01-23T08:43:19.845Z,2.50
2023-01-23T08:45:55.014Z,2.60
2023-01-23T08:48:23.792Z,2.60
2023-01-23T08:50:52.804Z,2.60
2023-01-23T08:53:19.767Z,2.60
2023-01-23T08:55:46.647Z,2.60
2023-01-23T08:58:13.575Z,2.60
2023-01-23T09:00:41.119Z,2.70
2023-01-23T09:03:11.133Z,2.60
2023-01-23T09:05:38.401Z,2.60
2023-01-23T09:08:05.424Z,2.70
2023-01-23T09:10:32.599Z,2.70
2023-01-23T09:12:59.608Z,2.80
2023-01-23T09:15:26.583Z,2.80
2023-01-23T09:17:53.561Z,2.80
2023-01-23T09:20:20.804Z,2.80
2023-01-23T09:22:47.892Z,2.90
2023-01-23T09:25:14.827Z,2.90
2023-01-23T09:27:41.784Z,2.90
2023-01-23T09:30:09.787Z,2.90
2023-01-23T09:32:36.865Z,3.00
2023-01-23T09:35:04.959Z,3.00
2023-01-23T09:37:51.202Z,3.00
2023-01-23T09:40:20.926Z,3.00
2023-01-23T09:42:49.365Z,3.10
2023-01-23T09:45:23.027Z,3.00
2023-01-23T09:47:57.234Z,3.10
2023-01-23T09:50:29.485Z,3.10
2023-01-23T09:53:05.703Z,3.20
2023-01-23T09:55:41.826Z,3.20
2023-01-23T09:58:32.884Z,3.30
2023-01-23T10:00:59.868Z,3.40
2023-01-23T10:03:32.028Z,3.40
2023-01-23T10:06:15.253Z,3.40
2023-01-23T10:08:48.035Z,3.40
2023-01-23T10:11:23.720Z,3.50
2023-01-23T10:14:09.474Z,3.40
2023-01-23T10:17:23.759Z,3.50
2023-01-23T10:19:59.647Z,3.40
2023-01-23T10:22:34.427Z,3.40
2023-01-23T10:25:10.716Z,3.50
2023-01-23T10:27:49.565Z,3.60
2023-01-23T10:30:27.670Z,3.50
2023-01-23T10:32:59.143Z,3.50
2023-01-23T10:35:43.247Z,3.50
2023-01-23T10:38:34.326Z,3.40
2023-01-23T10:41:13.368Z,3.30
2023-01-23T10:43:45.192Z,3.30
2023-01-23T10:46:20.658Z,3.20
2023-01-23T10:48:55.070Z,3.20
2023-01-23T10:51:47.353Z,3.30
2023-01-23T10:54:32.538Z,3.40
2023-01-23T10:57:08.833Z,3.40
2023-01-23T11:00:08.468Z,3.30
2023-01-23T11:02:39.047Z,3.40
2023-01-23T11:05:43.507Z,3.40
2023-01-23T11:08:29.043Z,3.50
2023-01-23T11:11:15.954Z,3.50
2023-01-23T11:13:44.679Z,3.50
2023-01-23T11:16:21.617Z,3.50
2023-01-23T11:18:56.027Z,3.60
2023-01-23T11:21:24.449Z,3.60
2023-01-23T11:24:18.812Z,3.70
2023-01-23T11:26:47.258Z,3.60
2023-01-23T11:29:23.705Z,3.60
2023-01-23T11:32:12.797Z,3.70
2023-01-23T11:35:14.913Z,3.60
2023-01-23T11:37:42.832Z,3.70
2023-01-23T11:40:20.175Z,3.70
2023-01-23T11:42:47.640Z,3.60
2023-01-23T11:45:36.239Z,3.60
2023-01-23T11:48:33.394Z,3.70
2023-01-23T11:51:21.571Z,3.70
2023-01-23T11:54:04.448Z,3.70
2023-01-23T11:57:00.737Z,3.60
2023-01-23T12:00:02.672Z,3.60
2023-01-23T12:02:51.071Z,3.60
2023-01-23T12:05:31.635Z,3.60
2023-01-23T12:08:13.061Z,3.60
2023-01-23T12:11:03.951Z,3.60
2023-01-23T12:13:52.511Z,3.60
2023-01-23T12:16:25.494Z,3.60
2023-01-23T12:19:18.065Z,3.70
2023-01-23T12:21:53.155Z,3.70
2023-01-23T12:24:41.830Z,3.80
2023-01-23T12:27:24.295Z,3.80
2023-01-23T12:30:18.712Z,3.70
2023-01-23T12:32:54.585Z,3.80
2023-01-23T12:35:42.800Z,3.70
2023-01-23T12:38:27.191Z,3.80
2023-01-23T12:41:28.867Z,3.90
2023-01-23T12:44:18.445Z,3.80
2023-01-23T12:46:54.160Z,3.70
2023-01-23T12:49:30.609Z,3.70
2023-01-23T12:52:06.433Z,3.80
2023-01-23T12:54:48.303Z,3.80
2023-01-23T12:57:46.219Z,3.80
2023-01-23T13:01:04.729Z,3.70
2023-01-23T13:03:44.769Z,3.80
2023-01-23T13:06:21.330Z,3.80
2023-01-23T13:09:20.999Z,3.70
2023-01-23T13:11:53.527Z,3.70
2023-01-23T13:14:25.610Z,3.70
2023-01-23T13:17:02.781Z,3.80
2023-01-23T13:19:58.377Z,3.80
2023-01-23T13:22:30.464Z,3.80
2023-01-23T13:25:17.150Z,3.70
2023-01-23T13:27:55.712Z,3.70
2023-01-23T13:30:36.232Z,3.70
2023-01-23T13:33:06.142Z,3.70
2023-01-23T13:35:39.465Z,3.70
2023-01-23T13:38:21.672Z,3.70
2023-01-23T13:41:14.511Z,3.70
2023-01-23T13:43:50.755Z,3.80
2023-01-23T13:46:31.672Z,3.90
2023-01-23T14:24:46.755Z,3.90
2023-01-23T14:27:52.923Z,3.90
2023-01-23T14:30:26.517Z,3.80
2023-01-23T14:32:53.976Z,3.80
2023-01-23T14:35:32.307Z,3.80
2023-01-23T14:38:07.911Z,3.80
2023-01-23T14:40:47.127Z,3.90
2023-01-23T14:43:28.453Z,3.80
2023-01-23T14:46:22.340Z,3.80
2023-01-23T14:48:55.146Z,3.70
2023-01-23T14:51:23.826Z,3.80
2023-01-23T14:54:01.857Z,3.70
2023-01-23T14:56:39.723Z,3.70
2023-01-23T14:59:15.601Z,3.70
2023-01-23T15:01:42.552Z,3.70
2023-01-23T15:04:21.954Z,3.60
2023-01-23T15:06:54.771Z,3.70
2023-01-23T15:09:30.221Z,3.70
2023-01-23T15:12:08.145Z,3.60
2023-01-23T15:14:39.774Z,3.60
2023-01-23T15:17:18.963Z,3.60
2023-01-23T15:19:51.523Z,3.60
2023-01-23T15:22:21.984Z,3.60
2023-01-23T15:24:49.292Z,3.60
2023-01-23T15:27:36.514Z,3.60
2023-01-23T15:30:29.319Z,3.50
2023-01-23T15:32:57.995Z,3.50
2023-01-23T15:35:25.256Z,3.50
2023-01-23T15:37:56.082Z,3.50
2023-01-23T15:40:27.664Z,3.50
2023-01-23T15:43:26.989Z,3.50
2023-01-23T15:45:54.018Z,3.50
2023-01-23T15:48:21.034Z,3.40
2023-01-23T15:50:48.114Z,3.40
2023-01-23T15:53:15.519Z,3.40
2023-01-23T15:55:42.509Z,3.40
2023-01-23T15:58:14.158Z,3.40
2023-01-23T16:00:41.012Z,3.40
2023-01-23T16:03:08.040Z,3.40
2023-01-23T16:05:37.187Z,3.40
2023-01-23T16:08:06.042Z,3.40
2023-01-23T16:10:38.498Z,3.30
2023-01-23T16:13:07.689Z,3.40
2023-01-23T16:15:35.498Z,3.40
2023-01-23T16:18:06.474Z,3.30
2023-01-23T16:20:43.799Z,3.40
2023-01-23T16:23:24.642Z,3.30
2023-01-23T16:25:52.478Z,3.30
2023-01-23T16:28:25.927Z,3.30
2023-01-23T16:30:53.261Z,3.30
2023-01-23T16:33:21.538Z,3.30
2023-01-23T16:35:50.307Z,3.30
2023-01-23T16:38:28.750Z,3.30
2023-01-23T16:40:59.415Z,3.30
2023-01-23T16:43:27.291Z,3.30
2023-01-23T16:45:56.498Z,3.30
2023-01-23T16:48:27.579Z,3.20
2023-01-23T16:51:02.456Z,3.20
2023-01-23T16:53:33.251Z,3.20
2023-01-23T16:56:02.184Z,3.20
2023-01-23T16:58:34.669Z,3.20
2023-01-23T17:01:04.817Z,3.20
2023-01-23T17:03:35.601Z,3.20
2023-01-23T17:06:02.670Z,3.20
2023-01-23T17:08:29.760Z,3.20
2023-01-23T17:11:01.477Z,3.20
2023-01-23T17:13:33.569Z,3.20
2023-01-23T17:16:02.774Z,3.20
2023-01-23T17:18:35.682Z,3.20
2023-01-23T17:21:06.239Z,3.20
2023-01-23T17:23:33.193Z,3.20
2023-01-23T17:26:01.577Z,3.20
2023-01-23T17:28:29.418Z,3.20
2023-01-23T17:31:00.483Z,3.20
2023-01-23T17:33:31.695Z,3.20
2023-01-23T17:36:03.272Z,3.20
2023-01-23T17:38:36.720Z,3.20
2023-01-23T17:41:04.994Z,3.10
2023-01-23T17:43:31.985Z,3.10
2023-01-23T17:45:59.132Z,3.10
2023-01-23T17:48:32.880Z,3.10
2023-01-23T17:51:00.049Z,3.10
2023-01-23T17:53:28.158Z,3.10
2023-01-23T17:55:55.273Z,3.10
2023-01-23T17:58:23.487Z,3.10
2023-01-23T18:00:53.350Z,3.20
2023-01-23T18:03:22.358Z,3.10
2023-01-23T18:05:49.468Z,3.10
2023-01-23T18:08:19.114Z,3.10
2023-01-23T18:10:48.286Z,3.10
2023-01-23T18:13:39.556Z,3.10
2023-01-23T18:16:24.680Z,3.10
2023-01-23T18:19:01.246Z,3.10
2023-01-23T18:21:28.706Z,3.10
2023-01-23T18:23:56.117Z,3.20
2023-01-23T18:26:34.863Z,3.10
2023-01-23T18:29:26.030Z,3.10
2023-01-23T18:32:08.172Z,3.10
2023-01-23T18:34:55.809Z,3.10
2023-01-23T18:37:47.209Z,3.00
2023-01-23T18:40:33.849Z,3.00
2023-01-23T18:43:26.644Z,3.00
2023-01-23T18:46:01.449Z,3.00
2023-01-23T18:48:28.895Z,3.00
2023-01-23T18:51:23.766Z,3.00
2023-01-23T18:54:21.888Z,3.00
2023-01-23T18:57:00.600Z,3.10
2023-01-23T18:59:55.310Z,3.10
2023-01-23T19:02:45.068Z,3.00
2023-01-23T19:05:15.912Z,3.00
2023-01-23T19:07:45.084Z,3.00
2023-01-23T19:10:17.665Z,3.00
2023-01-23T19:12:49.474Z,3.10
2023-01-23T19:15:30.021Z,3.10
2023-01-23T19:18:09.706Z,3.10
2023-01-23T19:20:46.310Z,3.00
2023-01-23T19:23:39.596Z,3.10
2023-01-23T19:26:13.781Z,3.10
2023-01-23T19:28:42.288Z,3.00
2023-01-23T19:31:21.520Z,3.00
2023-01-23T19:33:49.248Z,3.00
2023-01-23T19:36:16.375Z,3.00
2023-01-23T19:38:43.691Z,3.00
2023-01-23T19:41:25.089Z,3.00
2023-01-23T19:43:57.174Z,3.00
2023-01-23T19:46:31.085Z,3.00
2023-01-23T19:48:59.265Z,3.00
2023-01-23T19:51:30.626Z,3.00
2023-01-23T19:53:57.695Z,2.80
2023-01-23T19:56:24.866Z,3.00
2023-01-23T19:58:54.978Z,3.00
2023-01-23T20:01:53.805Z,3.00
2023-01-23T20:04:22.973Z,3.00
2023-01-23T20:06:53.231Z,3.00
2023-01-23T20:09:22.599Z,3.00
2023-01-23T20:11:49.647Z,3.00
2023-01-23T20:14:16.923Z,3.00
2023-01-23T20:16:44.635Z,3.00
2023-01-23T20:19:14.422Z,2.90
2023-01-23T20:21:41.605Z,2.90
2023-01-23T20:24:11.590Z,3.00
2023-01-23T20:26:38.839Z,2.90
2023-01-23T20:29:10.941Z,3.00
2023-01-23T20:31:38.041Z,2.90
2023-01-23T20:34:08.211Z,2.90
2023-01-23T20:36:35.461Z,2.90
2023-01-23T20:39:03.866Z,2.90
2023-01-23T20:41:31.140Z,2.90
2023-01-23T20:43:58.369Z,2.90
2023-01-23T20:46:27.619Z,2.90
2023-01-23T20:48:58.437Z,2.90
2023-01-23T20:51:28.543Z,2.90
2023-01-23T20:53:59.327Z,2.90
2023-01-23T20:56:29.203Z,2.90
2023-01-23T20:59:15.701Z,2.80
2023-01-23T21:02:02.061Z,2.90
2023-01-23T21:04:32.060Z,2.90
2023-01-23T21:06:59.972Z,2.90
2023-01-23T21:09:27.432Z,2.90
2023-01-23T21:11:55.136Z,2.90
2023-01-23T21:14:23.017Z,2.90
2023-01-23T21:16:59.077Z,2.90
2023-01-23T21:19:27.662Z,2.90
2023-01-23T21:21:55.714Z,3.00
2023-01-23T21:24:22.893Z,3.00
2023-01-23T21:26:50.279Z,3.00
2023-01-23T21:29:17.277Z,3.00
2023-01-23T21:31:44.849Z,3.00
2023-01-23T21:34:14.188Z,3.00
2023-01-23T21:36:44.519Z,3.00
2023-01-23T21:39:16.644Z,3.00
2023-01-23T21:41:43.802Z,3.00
2023-01-23T21:44:16.369Z,3.00
2023-01-23T21:46:47.022Z,3.00
2023-01-23T21:49:14.096Z,2.90
2023-01-23T21:51:43.069Z,3.00
2023-01-23T21:54:10.283Z,2.90
2023-01-23T21:56:40.219Z,2.90
2023-01-23T21:59:16.673Z,2.90
2023-01-23T22:01:53.276Z,2.90
2023-01-23T22:04:23.972Z,2.90
2023-01-23T22:06:56.195Z,2.90
2023-01-23T22:09:24.950Z,2.90
2023-01-23T22:11:52.161Z,2.90
2023-01-23T22:14:19.418Z,2.90
2023-01-23T22:16:50.752Z,2.90
2023-01-23T22:19:23.326Z,2.90
2023-01-23T22:21:52.261Z,2.90
2023-01-23T22:24:19.376Z,2.90
2023-01-23T22:26:46.306Z,2.90
2023-01-23T22:29:13.972Z,2.90
2023-01-23T22:31:41.619Z,2.90
2023-01-23T22:34:08.665Z,2.90
2023-01-23T22:36:35.685Z,2.90
2023-01-23T22:39:02.664Z,2.90
2023-01-23T22:41:29.804Z,2.90
2023-01-23T22:43:59.193Z,2.90
2023-01-23T22:46:27.908Z,2.80
2023-01-23T22:48:54.954Z,2.90
2023-01-23T22:51:27.165Z,2.90
2023-01-23T22:53:55.447Z,2.90
2023-01-23T22:56:24.115Z,2.90
2023-01-23T22:58:52.621Z,2.90
2023-01-23T23:01:20.218Z,2.90
2023-01-23T23:03:47.526Z,2.90
2023-01-23T23:06:16.240Z,2.90
2023-01-23T23:08:47.263Z,2.80
2023-01-23T23:11:27.278Z,2.90
2023-01-23T23:13:56.264Z,2.80
2023-01-23T23:16:30.871Z,2.80
2023-01-23T23:19:01.066Z,2.80
2023-01-23T23:21:32.122Z,2.80
2023-01-23T23:24:00.351Z,2.80
2023-01-23T23:26:31.131Z,2.80
2023-01-23T23:29:00.304Z,2.80
2023-01-23T23:31:27.900Z,2.80
2023-01-23T23:33:54.992Z,2.80
2023-01-23T23:36:22.078Z,2.70
2023-01-23T23:38:49.070Z,2.80
2023-01-23T23:41:17.416Z,2.80
2023-01-23T23:43:44.658Z,2.80
2023-01-23T23:46:13.252Z,2.70
2023-01-23T23:48:40.354Z,2.70
2023-01-23T23:51:09.443Z,2.80
2023-01-23T23:53:37.165Z,2.80
2023-01-23T23:56:05.377Z,2.80
2023-01-23T23:58:34.882Z,2.80
